sensor_id;sensor_type;location;lat;lon;timestamp;temperature;humidity
66156;DHT22;52957;50.848;20.656;2024-01-16T00:10:07;26;81
66156;DHT22;52957;50.848;20.656;2024-01-16T00:20:09;26;81
66156;DHT22;52957;50.848;20.656;2024-01-16T00:30:02;26;81
66156;DHT22;52957;50.848;20.656;2024-01-16T00:40:13;26;81
66156;DHT22;52957;50.848;20.656;2024-01-16T00:50:16;26;81
66156;DHT22;52957;50.848;20.656;2024-01-16T01:00:09;26;81
66156;DHT22;52957;50.848;20.656;2024-01-16T01:10:18;26;81
66156;DHT22;52957;50.848;20.656;2024-01-16T01:20:13;26;81
66156;DHT22;52957;50.848;20.656;2024-01-16T01:30:19;26;81
66156;DHT22;52957;50.848;20.656;2024-01-16T01:40:02;26;81
66156;DHT22;52957;50.848;20.656;2024-01-16T01:50:06;26;81
66156;DHT22;52957;50.848;20.656;2024-01-16T02:00:03;26;81
66156;DHT22;52957;50.848;20.656;2024-01-16T02:10:19;26;82
66156;DHT22;52957;50.848;20.656;2024-01-16T02:20:17;26;82
66156;DHT22;52957;50.848;20.656;2024-01-16T02:30:03;26;82
66156;DHT22;52957;50.848;20.656;2024-01-16T02:40:11;26;82
66156;DHT22;52957;50.848;20.656;2024-01-16T02:50:18;26;82
66156;DHT22;52957;50.848;20.656;2024-01-16T03:00:07;26;82
66156;DHT22;52957;50.848;20.656;2024-01-16T03:10:11;26;82
66156;DHT22;52957;50.848;20.656;2024-01-16T03:20:14;26;82
66156;DHT22;52957;50.848;20.656;2024-01-16T03:30:20;26;82
66156;DHT22;52957;50.848;20.656;2024-01-16T03:40:21;26;82
66156;DHT22;52957;50.848;20.656;2024-01-16T03:50:02;26;82
66156;DHT22;52957;50.848;20.656;2024-01-16T04:00:21;26;82
66156;DHT22;52957;50.848;20.656;2024-01-16T04:10:15;26;84
66156;DHT22;52957;50.848;20.656;2024-01-16T04:20:08;26;84
66156;DHT22;52957;50.848;20.656;2024-01-16T04:30:11;26;84
66156;DHT22;52957;50.848;20.656;2024-01-16T04:40:03;26;84
66156;DHT22;52957;50.848;20.656;2024-01-16T04:50:07;26;84
66156;DHT22;52957;50.848;20.656;2024-01-16T05:00:23;26;84
66156;DHT22;52957;50.848;20.656;2024-01-16T05:10:15;26;84
66156;DHT22;52957;50.848;20.656;2024-01-16T05:20:19;26;84
66156;DHT22;52957;50.848;20.656;2024-01-16T05:30:07;26;84
66156;DHT22;52957;50.848;20.656;2024-01-16T05:40:14;26;84
66156;DHT22;52957;50.848;20.656;2024-01-16T05:50:17;26;84
66156;DHT22;52957;50.848;20.656;2024-01-16T06:00:04;26;84
66156;DHT22;52957;50.848;20.656;2024-01-16T06:10:14;26;85
66156;DHT22;52957;50.848;20.656;2024-01-16T06:20:12;26;85
66156;DHT22;52957;50.848;20.656;2024-01-16T06:30:10;26;85
66156;DHT22;52957;50.848;20.656;2024-01-16T06:40:11;26;85
66156;DHT22;52957;50.848;20.656;2024-01-16T06:50:18;26;85
66156;DHT22;52957;50.848;20.656;2024-01-16T07:00:18;26;85
66156;DHT22;52957;50.848;20.656;2024-01-16T07:10:09;26;85
66156;DHT22;52957;50.848;20.656;2024-01-16T07:20:16;26;85
66156;DHT22;52957;50.848;20.656;2024-01-16T07:30:14;26;85
66156;DHT22;52957;50.848;20.656;2024-01-16T07:40:07;26;85
66156;DHT22;52957;50.848;20.656;2024-01-16T07:50:15;26;85
66156;DHT22;52957;50.848;20.656;2024-01-16T08:00:07;26;85
66156;DHT22;52957;50.848;20.656;2024-01-16T08:10:11;26;84
66156;DHT22;52957;50.848;20.656;2024-01-16T08:20:06;26;84
66156;DHT22;52957;50.848;20.656;2024-01-16T08:30:19;26;84
66156;DHT22;52957;50.848;20.656;2024-01-16T08:40:10;26;84
66156;DHT22;52957;50.848;20.656;2024-01-16T08:50:18;26;84
66156;DHT22;52957;50.848;20.656;2024-01-16T09:00:18;26;84
66156;DHT22;52957;50.848;20.656;2024-01-16T09:10:03;26;83
66156;DHT22;52957;50.848;20.656;2024-01-16T09:20:13;26;83
66156;DHT22;52957;50.848;20.656;2024-01-16T09:30:14;26;83
66156;DHT22;52957;50.848;20.656;2024-01-16T09:40:27;26;83
66156;DHT22;52957;50.848;20.656;2024-01-16T09:50:22;26;83
66156;DHT22;52957;50.848;20.656;2024-01-16T10:00:18;26;83
66156;DHT22;52957;50.848;20.656;2024-01-16T10:10:17;26;82
66156;DHT22;52957;50.848;20.656;2024-01-16T10:20:14;26;82
66156;DHT22;52957;50.848;20.656;2024-01-16T10:30:11;26;82
66156;DHT22;52957;50.848;20.656;2024-01-16T10:40:08;26;82
66156;DHT22;52957;50.848;20.656;2024-01-16T10:50:18;26;82
66156;DHT22;52957;50.848;20.656;2024-01-16T11:00:20;26;82
66156;DHT22;52957;50.848;20.656;2024-01-16T11:10:12;26;81
66156;DHT22;52957;50.848;20.656;2024-01-16T11:20:14;26;81
66156;DHT22;52957;50.848;20.656;2024-01-16T11:30:04;26;81
66156;DHT22;52957;50.848;20.656;2024-01-16T11:40:37;26;81
66156;DHT22;52957;50.848;20.656;2024-01-16T11:50:43;26;81
66156;DHT22;52957;50.848;20.656;2024-01-16T12:00:22;26;81
66156;DHT22;52957;50.848;20.656;2024-01-16T12:10:16;26;80
66156;DHT22;52957;50.848;20.656;2024-01-16T12:20:36;26;80
66156;DHT22;52957;50.848;20.656;2024-01-16T12:30:20;26;80
66156;DHT22;52957;50.848;20.656;2024-01-16T12:40:30;26;80
66156;DHT22;52957;50.848;20.656;2024-01-16T12:50:28;26;80
66156;DHT22;52957;50.848;20.656;2024-01-16T13:00:33;26;80
66156;DHT22;52957;50.848;20.656;2024-01-16T13:10:26;27;79
66156;DHT22;52957;50.848;20.656;2024-01-16T13:20:17;27;79
66156;DHT22;52957;50.848;20.656;2024-01-16T13:30:08;27;79
66156;DHT22;52957;50.848;20.656;2024-01-16T13:40:19;27;79
66156;DHT22;52957;50.848;20.656;2024-01-16T13:50:02;27;79
66156;DHT22;52957;50.848;20.656;2024-01-16T14:00:02;27;79
66156;DHT22;52957;50.848;20.656;2024-01-16T14:10:05;27;79
66156;DHT22;52957;50.848;20.656;2024-01-16T14:20:28;27;79
66156;DHT22;52957;50.848;20.656;2024-01-16T14:30:31;27;79
66156;DHT22;52957;50.848;20.656;2024-01-16T14:40:34;27;79
66156;DHT22;52957;50.848;20.656;2024-01-16T14:50:03;27;79
66156;DHT22;52957;50.848;20.656;2024-01-16T15:00:31;27;79
66156;DHT22;52957;50.848;20.656;2024-01-16T15:10:07;27;79
66156;DHT22;52957;50.848;20.656;2024-01-16T15:20:30;27;79
66156;DHT22;52957;50.848;20.656;2024-01-16T15:30:14;27;79
66156;DHT22;52957;50.848;20.656;2024-01-16T15:40:28;27;79
66156;DHT22;52957;50.848;20.656;2024-01-16T15:50:03;27;79
66156;DHT22;52957;50.848;20.656;2024-01-16T16:00:10;27;79
66156;DHT22;52957;50.848;20.656;2024-01-16T16:10:16;26;81
66156;DHT22;52957;50.848;20.656;2024-01-16T16:20:17;26;81
66156;DHT22;52957;50.848;20.656;2024-01-16T16:30:18;26;81
66156;DHT22;52957;50.848;20.656;2024-01-16T16:50:07;26;81
66156;DHT22;52957;50.848;20.656;2024-01-16T17:00:02;26;81
66156;DHT22;52957;50.848;20.656;2024-01-16T17:20:05;26;80
66156;DHT22;52957;50.848;20.656;2024-01-16T17:30:20;26;80
66156;DHT22;52957;50.848;20.656;2024-01-16T17:50:17;26;80
66156;DHT22;52957;50.848;20.656;2024-01-16T18:00:17;26;80
66156;DHT22;52957;50.848;20.656;2024-01-16T18:20:18;27;79
66156;DHT22;52957;50.848;20.656;2024-01-16T18:30:16;27;79
66156;DHT22;52957;50.848;20.656;2024-01-16T18:50:13;26;79
66156;DHT22;52957;50.848;20.656;2024-01-16T19:00:23;26;79
66156;DHT22;52957;50.848;20.656;2024-01-16T19:20:32;27;76
66156;DHT22;52957;50.848;20.656;2024-01-16T19:30:28;27;76
66156;DHT22;52957;50.848;20.656;2024-01-16T19:40:09;27;76
66156;DHT22;52957;50.848;20.656;2024-01-16T19:50:19;27;76
66156;DHT22;52957;50.848;20.656;2024-01-16T20:00:13;27;76
66156;DHT22;52957;50.848;20.656;2024-01-16T20:10:17;27;76
66156;DHT22;52957;50.848;20.656;2024-01-16T20:20:02;27;76
66156;DHT22;52957;50.848;20.656;2024-01-16T20:30:10;27;76
66156;DHT22;52957;50.848;20.656;2024-01-16T20:40:14;27;76
66156;DHT22;52957;50.848;20.656;2024-01-16T20:50:16;27;76
66156;DHT22;52957;50.848;20.656;2024-01-16T21:00:03;27;76
66156;DHT22;52957;50.848;20.656;2024-01-16T21:10:16;27;76
66156;DHT22;52957;50.848;20.656;2024-01-16T21:20:02;26;78
66156;DHT22;52957;50.848;20.656;2024-01-16T21:30:13;26;78
66156;DHT22;52957;50.848;20.656;2024-01-16T21:40:16;26;78
66156;DHT22;52957;50.848;20.656;2024-01-16T21:50:18;26;78
66156;DHT22;52957;50.848;20.656;2024-01-16T22:00:06;26;78
66156;DHT22;52957;50.848;20.656;2024-01-16T22:10:10;26;78
66156;DHT22;52957;50.848;20.656;2024-01-16T22:20:11;26;77
66156;DHT22;52957;50.848;20.656;2024-01-16T22:30:11;26;77
66156;DHT22;52957;50.848;20.656;2024-01-16T22:40:25;26;77
66156;DHT22;52957;50.848;20.656;2024-01-16T22:50:19;26;77
66156;DHT22;52957;50.848;20.656;2024-01-16T23:00:31;26;77
66156;DHT22;52957;50.848;20.656;2024-01-16T23:10:28;27;75
66156;DHT22;52957;50.848;20.656;2024-01-16T23:20:31;27;75
66156;DHT22;52957;50.848;20.656;2024-01-16T23:30:20;27;75
66156;DHT22;52957;50.848;20.656;2024-01-16T23:40:11;27;75
66156;DHT22;52957;50.848;20.656;2024-01-16T23:50:18;27;75
